Spirit Lake, Iowa
Current Conditions -  °F | °C
As of 11:34 AM on Tuesday 21 Oct 2014 (Local Time) from KMJQ Reporting Station
Clear Clear  
Wind Chill: 61°   Ceiling: Unl
Heat Index: 61°   Visibility: 10mi
Dew Point: 39°   Wind: 10mph
Humidity: 45%   Direction: 160°SSE
Pressure: 30.13"   Gusts: NA
Location:  43.42°N, 95.1°W
Report Text: KMJQ 211634Z AUTO 16009KT 10SM CLR 16/04 A3013 RMK AO2
Loading
Personal Weather Stations






























Interactive Weather Map
Tropical Storm Tracking
New forecast layout! Learn more

10-Day Weather Forecast

Advertisements
Track Severe Weather on mobile